createdAt,value
2022-11-25T00:01:22.505Z,12.60
2022-11-25T00:03:52.806Z,10.98
2022-11-25T00:06:24.084Z,18.08
2022-11-25T00:08:55.183Z,10.10
2022-11-25T00:11:23.300Z,10.13
2022-11-25T00:13:52.889Z,13.82
2022-11-25T00:16:23.096Z,13.63
2022-11-25T00:18:53.312Z,10.65
2022-11-25T00:21:23.130Z,13.25
2022-11-25T00:23:55.736Z,14.82
2022-11-25T00:26:24.755Z,12.27
2022-11-25T00:28:54.929Z,9.82
2022-11-25T00:31:24.488Z,11.48
2022-11-25T00:33:52.976Z,14.05
2022-11-25T00:36:22.546Z,9.48
2022-11-25T00:38:54.844Z,10.52
2022-11-25T00:41:42.810Z,10.75
2022-11-25T00:44:31.631Z,13.98
2022-11-25T00:46:59.861Z,9.05
2022-11-25T00:49:28.116Z,8.18
2022-11-25T00:51:56.579Z,8.60
2022-11-25T00:54:24.640Z,10.13
2022-11-25T00:56:53.134Z,7.38
2022-11-25T00:59:22.445Z,8.00
2022-11-25T01:01:50.879Z,6.35
2022-11-25T01:04:18.922Z,10.40
2022-11-25T01:06:47.046Z,8.27
2022-11-25T01:09:14.970Z,10.57
2022-11-25T01:11:43.102Z,5.40
2022-11-25T01:14:11.254Z,5.72
2022-11-25T01:16:40.643Z,6.32
2022-11-25T01:19:08.878Z,8.77
2022-11-25T01:21:37.029Z,6.95
2022-11-25T01:24:06.939Z,5.75
2022-11-25T01:26:36.352Z,4.40
2022-11-25T01:29:07.038Z,5.40
2022-11-25T01:31:37.575Z,3.47
2022-11-25T01:34:09.127Z,4.35
2022-11-25T01:36:37.061Z,6.63
2022-11-25T01:39:05.797Z,4.80
2022-11-25T01:41:35.259Z,4.93
2022-11-25T01:44:11.093Z,6.70
2022-11-25T01:46:56.055Z,5.07
2022-11-25T01:49:34.413Z,5.20
2022-11-25T01:52:07.629Z,6.00
2022-11-25T01:54:43.903Z,5.22
2022-11-25T01:57:17.884Z,4.85
2022-11-25T01:59:50.787Z,5.88
2022-11-25T02:02:19.989Z,8.52
2022-11-25T02:04:50.310Z,4.55
2022-11-25T02:07:23.957Z,5.15
2022-11-25T02:09:52.650Z,4.90
2022-11-25T02:12:21.778Z,3.90
2022-11-25T02:14:51.859Z,3.17
2022-11-25T02:17:20.035Z,3.85
2022-11-25T02:19:59.829Z,5.25
2022-11-25T02:22:34.429Z,3.95
2022-11-25T02:25:11.264Z,5.60
2022-11-25T02:27:39.460Z,5.53
2022-11-25T02:30:08.748Z,7.25
2022-11-25T02:32:36.712Z,4.82
2022-11-25T02:35:25.072Z,7.57
2022-11-25T02:37:56.331Z,5.80
2022-11-25T02:40:26.786Z,4.00
2022-11-25T02:42:57.650Z,6.65
2022-11-25T02:45:34.426Z,3.72
2022-11-25T02:48:02.709Z,5.82
2022-11-25T02:50:30.871Z,3.22
2022-11-25T02:52:58.852Z,7.25
2022-11-25T02:55:28.195Z,10.13
2022-11-25T02:57:56.334Z,7.15
2022-11-25T03:00:24.497Z,8.90
2022-11-25T03:02:54.504Z,8.07
2022-11-25T03:05:22.600Z,7.32
2022-11-25T03:07:51.099Z,8.75
2022-11-25T03:10:19.211Z,11.07
2022-11-25T03:12:48.928Z,11.30
2022-11-25T03:15:17.016Z,11.93
2022-11-25T03:17:45.052Z,10.93
2022-11-25T03:20:15.031Z,14.80
2022-11-25T03:22:43.352Z,11.85
2022-11-25T03:25:12.941Z,14.23
2022-11-25T03:27:41.606Z,15.65
2022-11-25T03:30:13.788Z,18.88
2022-11-25T03:32:42.004Z,15.00
2022-11-25T03:35:10.856Z,16.17
2022-11-25T03:37:39.406Z,15.52
2022-11-25T03:40:09.657Z,15.82
2022-11-25T03:42:37.746Z,14.35
2022-11-25T03:45:06.822Z,18.52
2022-11-25T03:47:38.730Z,15.43
2022-11-25T03:50:08.339Z,20.40
2022-11-25T03:52:36.420Z,19.20
2022-11-25T03:55:04.804Z,19.65
2022-11-25T03:57:32.747Z,14.63
2022-11-25T04:00:01.962Z,17.33
2022-11-25T04:02:29.890Z,16.25
2022-11-25T04:04:59.233Z,12.68
2022-11-25T04:07:27.211Z,13.43
2022-11-25T04:09:55.269Z,15.45
2022-11-25T04:12:40.544Z,17.02
2022-11-25T04:15:09.368Z,13.20
2022-11-25T04:17:37.279Z,11.07
2022-11-25T04:20:10.633Z,15.85
2022-11-25T04:22:38.637Z,12.68
2022-11-25T04:25:09.575Z,12.68
2022-11-25T04:27:37.530Z,14.77
2022-11-25T04:30:06.238Z,15.95
2022-11-25T04:32:37.278Z,14.93
2022-11-25T04:35:07.369Z,7.68
2022-11-25T04:37:35.339Z,10.27
2022-11-25T04:40:06.087Z,7.88
2022-11-25T04:42:34.635Z,7.63
2022-11-25T04:47:54.188Z,7.50
2022-11-25T04:50:25.068Z,8.02
2022-11-25T04:52:54.011Z,4.15
2022-11-25T04:55:21.981Z,10.38
2022-11-25T04:57:49.915Z,6.13
2022-11-25T05:00:17.877Z,7.45
2022-11-25T05:02:45.857Z,4.85
2022-11-25T05:05:15.967Z,8.68
2022-11-25T05:07:45.459Z,6.85
2022-11-25T05:10:13.509Z,5.32
2022-11-25T05:12:41.814Z,7.80
2022-11-25T05:15:11.067Z,7.82
2022-11-25T05:17:39.582Z,7.63
2022-11-25T05:20:08.777Z,7.05
2022-11-25T05:22:36.889Z,6.38
2022-11-25T05:25:06.925Z,6.30
2022-11-25T05:27:34.929Z,8.25
2022-11-25T05:30:02.948Z,4.00
2022-11-25T05:32:30.930Z,5.65
2022-11-25T05:34:58.789Z,6.95
2022-11-25T05:37:26.687Z,5.07
2022-11-25T05:39:55.388Z,3.70
2022-11-25T05:42:24.733Z,5.00
2022-11-25T05:44:52.713Z,2.78
2022-11-25T05:47:20.628Z,4.18
2022-11-25T05:49:48.478Z,5.65
2022-11-25T05:52:16.411Z,4.20
2022-11-25T05:54:44.375Z,3.30
2022-11-25T05:57:12.285Z,4.55
2022-11-25T05:59:42.738Z,6.25
2022-11-25T06:02:10.726Z,4.00
2022-11-25T06:04:39.047Z,5.03
2022-11-25T06:07:07.398Z,6.32
2022-11-25T06:09:35.448Z,5.25
2022-11-25T06:12:03.819Z,4.65
2022-11-25T06:14:31.805Z,5.07
2022-11-25T06:17:01.128Z,6.57
2022-11-25T06:19:29.432Z,3.45
2022-11-25T06:21:57.372Z,7.20
2022-11-25T06:24:25.608Z,4.55
2022-11-25T06:26:53.602Z,4.78
2022-11-25T06:29:21.883Z,4.03
2022-11-25T06:31:50.927Z,6.25
2022-11-25T06:34:20.333Z,3.90
2022-11-25T06:36:50.268Z,7.40
2022-11-25T06:39:18.266Z,6.45
2022-11-25T06:41:47.116Z,5.25
2022-11-25T06:44:15.663Z,4.93
2022-11-25T06:46:43.692Z,5.32
2022-11-25T06:49:11.688Z,7.93
2022-11-25T06:51:40.984Z,10.13
2022-11-25T06:54:10.243Z,6.85
2022-11-25T06:56:38.554Z,10.73
2022-11-25T06:59:06.496Z,11.55
2022-11-25T07:01:34.612Z,10.70
2022-11-25T07:04:04.795Z,7.07
2022-11-25T07:06:34.416Z,9.15
2022-11-25T07:09:03.924Z,9.15
2022-11-25T07:11:33.714Z,9.02
2022-11-25T07:14:04.957Z,8.45
2022-11-25T07:16:36.332Z,8.20
2022-11-25T07:19:04.949Z,9.57
2022-11-25T07:21:36.872Z,9.98
2022-11-25T07:24:08.071Z,14.30
2022-11-25T07:26:38.500Z,11.18
2022-11-25T07:29:23.522Z,11.63
2022-11-25T07:31:56.871Z,11.23
2022-11-25T07:34:24.932Z,101.43
2022-11-25T07:36:52.964Z,28.17
2022-11-25T07:39:24.289Z,12.15
2022-11-25T07:41:53.075Z,5.95
2022-11-25T07:44:21.990Z,6.32
2022-11-25T07:46:51.099Z,3.70
2022-11-25T07:49:22.191Z,5.45
2022-11-25T07:51:53.366Z,4.32
2022-11-25T07:54:23.835Z,6.60
2022-11-25T07:56:52.154Z,5.60
2022-11-25T07:59:22.230Z,9.85
2022-11-25T08:01:51.162Z,5.65
2022-11-25T08:04:21.185Z,8.27
2022-11-25T08:06:52.328Z,8.88
2022-11-25T08:09:24.288Z,10.48
2022-11-25T08:11:52.534Z,9.38
2022-11-25T08:14:21.477Z,8.32
2022-11-25T08:16:50.488Z,9.90
2022-11-25T08:19:18.845Z,10.48
2022-11-25T08:21:47.925Z,10.38
2022-11-25T08:24:18.108Z,10.45
2022-11-25T08:26:48.003Z,10.77
2022-11-25T08:29:18.370Z,12.23
2022-11-25T08:31:46.936Z,12.25
2022-11-25T08:34:19.977Z,13.02
2022-11-25T08:36:49.065Z,8.65
2022-11-25T08:39:44.168Z,12.98
2022-11-25T08:42:07.473Z,13.32
2022-11-25T08:44:35.491Z,11.85
2022-11-25T08:47:03.767Z,14.95
2022-11-25T08:49:36.020Z,13.70
2022-11-25T08:52:08.464Z,7.28
2022-11-25T08:54:36.403Z,5.22
2022-11-25T08:57:05.864Z,4.95
2022-11-25T08:59:34.077Z,5.97
2022-11-25T09:02:02.598Z,15.98
2022-11-25T09:04:30.718Z,17.30
2022-11-25T09:06:58.733Z,13.70
2022-11-25T09:09:27.179Z,14.52
2022-11-25T09:11:55.192Z,12.05
2022-11-25T09:14:24.662Z,14.60
2022-11-25T09:16:52.733Z,10.52
2022-11-25T09:19:21.730Z,11.70
2022-11-25T09:21:49.775Z,10.75
2022-11-25T09:24:17.895Z,13.82
2022-11-25T09:26:45.895Z,12.18
2022-11-25T09:29:14.726Z,13.68
2022-11-25T09:31:44.139Z,13.93
2022-11-25T09:34:12.233Z,14.25
2022-11-25T09:36:40.278Z,13.98
2022-11-25T09:39:11.219Z,11.27
2022-11-25T09:42:13.707Z,9.52
2022-11-25T09:45:10.640Z,5.70
2022-11-25T09:47:54.267Z,5.88
2022-11-25T09:50:35.616Z,5.55
2022-11-25T09:53:12.755Z,4.50
2022-11-25T09:55:46.615Z,5.43
2022-11-25T09:58:27.169Z,7.00
2022-11-25T10:00:55.537Z,5.75
2022-11-25T10:03:35.802Z,4.25
2022-11-25T10:06:08.038Z,4.85
2022-11-25T10:08:39.169Z,6.35
2022-11-25T10:11:18.014Z,7.30
2022-11-25T10:13:53.613Z,5.35
2022-11-25T10:16:33.988Z,5.28
2022-11-25T10:19:13.225Z,6.18
2022-11-25T10:21:41.497Z,5.72
2022-11-25T10:24:15.651Z,4.30
2022-11-25T10:26:45.801Z,7.30
2022-11-25T10:29:28.649Z,3.63
2022-11-25T10:32:10.309Z,6.10
2022-11-25T10:34:44.949Z,5.53
2022-11-25T10:37:15.689Z,4.00
2022-11-25T10:39:43.691Z,7.38
2022-11-25T10:42:17.277Z,6.82
2022-11-25T10:44:45.591Z,5.72
2022-11-25T10:47:33.407Z,6.72
2022-11-25T10:50:23.900Z,7.15
2022-11-25T10:52:58.110Z,11.63
2022-11-25T10:55:31.633Z,8.27
2022-11-25T10:58:00.608Z,6.13
2022-11-25T11:00:32.512Z,7.47
2022-11-25T11:03:13.621Z,5.60
2022-11-25T11:05:50.897Z,6.40
2022-11-25T11:08:21.933Z,5.38
2022-11-25T11:11:15.112Z,6.85
2022-11-25T11:13:43.564Z,8.15
2022-11-25T11:16:26.860Z,11.00
2022-11-25T11:18:56.267Z,13.07
2022-11-25T11:21:31.149Z,8.32
2022-11-25T11:24:00.753Z,8.98
2022-11-25T11:26:34.074Z,8.25
2022-11-25T11:29:07.294Z,9.40
2022-11-25T11:31:40.168Z,6.38
2022-11-25T11:34:31.323Z,7.78
2022-11-25T11:37:23.759Z,10.00
2022-11-25T11:40:23.073Z,7.28
2022-11-25T11:43:01.501Z,9.13
2022-11-25T11:45:44.092Z,8.60
2022-11-25T11:48:20.770Z,6.10
2022-11-25T11:50:56.815Z,9.20
2022-11-25T11:53:32.722Z,8.15
2022-11-25T11:56:33.795Z,8.70
2022-11-25T11:59:08.636Z,8.63
2022-11-25T12:01:52.186Z,9.60
2022-11-25T12:04:26.193Z,9.88
2022-11-25T12:07:10.115Z,11.07
2022-11-25T12:09:46.232Z,9.05
2022-11-25T12:12:19.790Z,8.82
2022-11-25T12:14:52.331Z,9.88
2022-11-25T12:17:24.977Z,7.65
2022-11-25T12:20:00.668Z,8.23
2022-11-25T12:22:38.357Z,9.23
2022-11-25T12:25:13.411Z,6.57
2022-11-25T12:27:45.448Z,9.10
2022-11-25T12:30:18.806Z,9.63
2022-11-25T12:33:04.792Z,7.05
2022-11-25T12:35:47.125Z,10.25
2022-11-25T12:38:23.343Z,7.80
2022-11-25T12:41:00.736Z,10.00
2022-11-25T12:43:39.318Z,9.40
2022-11-25T12:46:25.783Z,8.75
2022-11-25T12:48:55.914Z,7.57
2022-11-25T12:51:44.205Z,7.97
2022-11-25T12:54:35.492Z,9.32
2022-11-25T12:57:29.369Z,6.80
2022-11-25T13:00:39.398Z,13.43
2022-11-25T13:03:14.268Z,7.00
2022-11-25T13:06:07.727Z,5.43
2022-11-25T13:08:53.286Z,10.93
2022-11-25T13:11:51.842Z,8.35
2022-11-25T13:14:28.911Z,6.60
2022-11-25T13:17:01.141Z,8.57
2022-11-25T13:19:29.509Z,6.65
2022-11-25T13:22:00.001Z,5.80
2022-11-25T13:24:35.656Z,4.90
2022-11-25T13:27:06.364Z,11.15
2022-11-25T13:30:03.922Z,8.27
2022-11-25T13:32:43.444Z,6.63
2022-11-25T13:35:32.955Z,7.65
2022-11-25T13:38:01.123Z,8.00
2022-11-25T13:40:38.422Z,5.72
2022-11-25T13:43:07.266Z,8.38
2022-11-25T13:45:40.424Z,6.50
2022-11-25T13:48:14.186Z,6.03
2022-11-25T13:51:09.347Z,11.27
2022-11-25T13:53:34.736Z,10.65
2022-11-25T13:56:15.896Z,11.93
2022-11-25T13:59:20.298Z,14.90
2022-11-25T14:01:55.742Z,12.98
2022-11-25T14:04:42.603Z,12.93
2022-11-25T14:07:26.993Z,9.23
2022-11-25T14:10:08.967Z,10.50
2022-11-25T14:12:53.387Z,9.40
2022-11-25T14:15:48.304Z,14.23
2022-11-25T14:19:21.656Z,10.73
2022-11-25T14:21:54.101Z,10.02
2022-11-25T14:24:34.280Z,10.07
2022-11-25T14:27:02.996Z,10.65
2022-11-25T14:29:39.483Z,10.43
2022-11-25T14:32:12.556Z,11.43
2022-11-25T14:34:46.542Z,11.50
2022-11-25T14:37:18.744Z,10.57
2022-11-25T14:39:53.462Z,15.57
2022-11-25T14:42:26.069Z,14.32
2022-11-25T14:44:55.856Z,12.10
2022-11-25T14:47:24.864Z,10.85
2022-11-25T14:50:18.746Z,10.23
2022-11-25T14:52:45.988Z,15.55
2022-11-25T14:55:14.842Z,17.25
2022-11-25T14:57:46.069Z,11.60
2022-11-25T15:00:17.687Z,16.27
2022-11-25T15:02:55.368Z,15.25
2022-11-25T15:05:27.213Z,17.13
2022-11-25T15:08:00.363Z,12.25
2022-11-25T15:10:33.882Z,39.47
2022-11-25T15:13:07.603Z,89.00
2022-11-25T15:15:35.852Z,42.72
2022-11-25T15:18:06.665Z,23.10
2022-11-25T15:20:36.280Z,15.35
2022-11-25T15:23:07.443Z,16.38
2022-11-25T15:25:35.356Z,12.40
2022-11-25T15:28:03.249Z,16.80
2022-11-25T15:30:31.305Z,15.25
2022-11-25T15:33:00.190Z,13.00
2022-11-25T15:35:28.794Z,22.67
2022-11-25T15:37:58.138Z,19.75
2022-11-25T15:40:36.564Z,11.48
2022-11-25T15:43:07.166Z,10.95
2022-11-25T15:45:43.968Z,15.40
2022-11-25T15:48:20.652Z,12.75
2022-11-25T15:50:48.628Z,10.18
2022-11-25T15:53:31.693Z,12.57
2022-11-25T15:56:02.474Z,10.90
2022-11-25T15:58:30.512Z,16.73
2022-11-25T16:01:05.778Z,12.55
2022-11-25T16:03:35.402Z,19.05
2022-11-25T16:06:03.974Z,11.68
2022-11-25T16:08:37.420Z,11.43
2022-11-25T16:11:15.399Z,8.77
2022-11-25T16:13:43.769Z,8.55
2022-11-25T16:16:16.592Z,9.93
2022-11-25T16:18:53.860Z,8.80
2022-11-25T16:21:24.924Z,13.02
2022-11-25T16:23:57.868Z,14.65
2022-11-25T16:26:29.522Z,23.90
2022-11-25T16:28:59.993Z,12.40
2022-11-25T16:31:28.566Z,12.60
2022-11-25T16:34:00.010Z,13.57
2022-11-25T16:36:28.010Z,14.27
2022-11-25T16:39:00.529Z,16.08
2022-11-25T16:41:28.659Z,14.27
2022-11-25T16:43:57.166Z,10.82
2022-11-25T16:46:27.997Z,11.73
2022-11-25T16:48:56.010Z,15.80
2022-11-25T16:51:25.225Z,11.73
2022-11-25T16:53:53.145Z,12.00
2022-11-25T16:56:25.878Z,15.05
2022-11-25T16:58:54.845Z,9.50
2022-11-25T17:01:25.683Z,8.05
2022-11-25T17:03:53.758Z,9.27
2022-11-25T17:06:26.519Z,7.00
2022-11-25T17:08:54.546Z,7.95
2022-11-25T17:11:29.936Z,10.43
2022-11-25T17:14:01.838Z,11.85
2022-11-25T17:16:31.105Z,10.20
2022-11-25T17:19:00.917Z,9.85
2022-11-25T17:21:29.658Z,14.80
2022-11-25T17:24:02.749Z,9.85
2022-11-25T17:26:37.579Z,14.40
2022-11-25T17:29:08.742Z,11.00
2022-11-25T17:31:39.084Z,6.88
2022-11-25T17:34:07.065Z,10.98
2022-11-25T17:36:35.343Z,11.23
2022-11-25T17:39:03.297Z,17.83
2022-11-25T17:41:39.533Z,20.77
2022-11-25T17:44:12.990Z,15.50
2022-11-25T17:46:41.027Z,15.50
2022-11-25T17:49:15.248Z,19.30
2022-11-25T17:51:43.640Z,15.38
2022-11-25T17:54:12.598Z,11.85
2022-11-25T17:56:45.460Z,16.40
2022-11-25T17:59:19.229Z,13.18
2022-11-25T18:01:47.212Z,18.50
2022-11-25T18:04:16.751Z,15.90
2022-11-25T18:06:44.852Z,15.63
2022-11-25T18:09:12.788Z,19.65
2022-11-25T18:11:46.666Z,11.13
2022-11-25T18:14:21.372Z,13.85
2022-11-25T18:16:49.485Z,17.13
2022-11-25T18:19:17.570Z,21.02
2022-11-25T18:21:45.526Z,15.80
2022-11-25T18:24:13.525Z,14.52
2022-11-25T18:26:46.066Z,15.85
2022-11-25T18:29:16.879Z,17.75
2022-11-25T18:31:45.910Z,13.88
2022-11-25T18:34:18.396Z,17.10
2022-11-25T18:36:46.703Z,13.60
2022-11-25T18:39:14.805Z,11.73
2022-11-25T18:41:46.606Z,11.85
2022-11-25T18:44:25.906Z,9.45
2022-11-25T18:46:54.726Z,15.13
2022-11-25T18:49:23.815Z,18.63
2022-11-25T18:51:51.852Z,11.52
2022-11-25T18:54:19.868Z,16.45
2022-11-25T18:56:52.573Z,12.05
2022-11-25T18:59:26.526Z,20.08
2022-11-25T19:01:55.096Z,13.57
2022-11-25T19:04:23.277Z,16.00
2022-11-25T19:06:51.283Z,18.38
2022-11-25T19:09:19.278Z,13.60
2022-11-25T19:11:55.125Z,12.93
2022-11-25T19:14:30.118Z,15.93
2022-11-25T19:17:01.465Z,12.23
2022-11-25T19:19:29.594Z,13.52
2022-11-25T19:22:00.734Z,19.48
2022-11-25T19:24:29.446Z,11.95
2022-11-25T19:26:58.856Z,13.95
2022-11-25T19:29:33.297Z,14.98
2022-11-25T19:32:05.198Z,15.20
2022-11-25T19:34:36.558Z,11.02
2022-11-25T19:37:04.920Z,11.63
2022-11-25T19:39:36.642Z,16.92
2022-11-25T19:42:06.286Z,13.10
2022-11-25T19:44:34.584Z,15.38
2022-11-25T19:47:18.212Z,17.20
2022-11-25T19:49:46.819Z,14.93
2022-11-25T19:52:20.476Z,9.80
2022-11-25T19:54:48.843Z,10.23
2022-11-25T19:57:20.855Z,11.82
2022-11-25T19:59:49.211Z,10.23
2022-11-25T20:02:20.123Z,11.60
2022-11-25T20:04:50.069Z,16.92
2022-11-25T20:07:20.650Z,12.35
2022-11-25T20:09:49.354Z,13.00
2022-11-25T20:12:22.239Z,16.13
2022-11-25T20:14:51.572Z,14.10
2022-11-25T20:17:25.815Z,11.00
2022-11-25T20:19:55.814Z,15.20
2022-11-25T20:22:30.013Z,15.82
2022-11-25T20:24:59.396Z,15.20
2022-11-25T20:27:29.701Z,14.75
2022-11-25T20:29:57.704Z,17.05
2022-11-25T20:32:28.929Z,13.77
2022-11-25T20:34:56.935Z,14.35
2022-11-25T20:37:25.533Z,15.48
2022-11-25T20:39:55.105Z,13.05
2022-11-25T20:42:23.863Z,12.60
2022-11-25T20:44:57.505Z,14.95
2022-11-25T20:47:27.360Z,12.43
2022-11-25T20:49:55.360Z,14.50
2022-11-25T20:52:28.718Z,12.18
2022-11-25T20:54:57.145Z,14.18
2022-11-25T20:57:26.608Z,12.85
2022-11-25T20:59:56.009Z,15.27
2022-11-25T21:02:24.053Z,15.88
2022-11-25T21:04:52.044Z,16.27
2022-11-25T21:07:20.125Z,15.95
2022-11-25T21:09:48.273Z,13.55
2022-11-25T21:12:19.545Z,12.07
2022-11-25T21:14:47.992Z,11.95
2022-11-25T21:17:17.565Z,16.48
2022-11-25T21:19:45.623Z,15.13
2022-11-25T21:22:15.620Z,16.50
2022-11-25T21:24:44.814Z,14.68
2022-11-25T21:27:15.177Z,16.88
2022-11-25T21:29:45.975Z,12.32
2022-11-25T21:32:23.420Z,15.82
2022-11-25T21:34:52.159Z,18.55
2022-11-25T21:37:29.817Z,18.98
2022-11-25T21:39:58.530Z,22.02
2022-11-25T21:42:27.310Z,13.05
2022-11-25T21:44:56.534Z,17.50
2022-11-25T21:47:29.813Z,10.45
2022-11-25T21:50:03.119Z,14.32
2022-11-25T21:52:31.437Z,15.82
2022-11-25T21:55:00.425Z,11.02
2022-11-25T21:57:29.488Z,16.75
2022-11-25T21:59:57.551Z,10.73
2022-11-25T22:02:26.975Z,92.35
2022-11-25T22:04:59.920Z,151.57
2022-11-25T22:07:30.812Z,72.10
2022-11-25T22:09:59.093Z,131.45
2022-11-25T22:12:29.727Z,52.92
2022-11-25T22:15:00.094Z,73.55
2022-11-25T22:17:31.012Z,71.35
2022-11-25T22:20:00.178Z,88.55
2022-11-25T22:22:28.891Z,37.08
2022-11-25T22:24:56.836Z,25.20
2022-11-25T22:27:28.366Z,28.27
2022-11-25T22:29:56.921Z,20.40
2022-11-25T22:32:25.609Z,21.40
2022-11-25T22:34:55.122Z,28.20
2022-11-25T22:37:25.249Z,17.25
2022-11-25T22:39:53.226Z,17.33
2022-11-25T22:42:26.636Z,15.43
2022-11-25T22:44:56.288Z,20.88
2022-11-25T22:47:34.134Z,15.35
2022-11-25T22:50:05.520Z,26.33
2022-11-25T22:52:35.645Z,19.67
2022-11-25T22:55:17.312Z,19.95
2022-11-25T22:57:45.379Z,19.30
2022-11-25T23:00:20.090Z,18.88
2022-11-25T23:02:48.885Z,18.92
2022-11-25T23:05:26.351Z,20.35
2022-11-25T23:07:57.639Z,12.30
2022-11-25T23:10:27.792Z,13.75
2022-11-25T23:12:56.000Z,17.48
2022-11-25T23:15:26.096Z,17.55
2022-11-25T23:17:56.352Z,14.88
2022-11-25T23:20:29.696Z,18.80
2022-11-25T23:22:58.086Z,16.27
2022-11-25T23:25:26.142Z,21.88
2022-11-25T23:27:54.107Z,19.20
2022-11-25T23:30:24.211Z,15.32
2022-11-25T23:33:03.039Z,20.50
2022-11-25T23:35:36.548Z,19.70
2022-11-25T23:38:07.303Z,19.90
2022-11-25T23:40:35.652Z,18.08
2022-11-25T23:43:03.755Z,17.98
2022-11-25T23:45:31.909Z,18.25
2022-11-25T23:47:59.932Z,19.45
2022-11-25T23:50:36.285Z,20.38
2022-11-25T23:53:07.333Z,18.67
2022-11-25T23:55:37.789Z,13.95
2022-11-25T23:58:15.048Z,15.30
